Airfield :







YOU CAN JOIN US ON...

 
LOGIN :

Register | Disclaimer

   EN    FR    IT 

 









Legend :    VFR   Marginal VFR   IFR   Intensive IFR   Very Intensive IFR
Visi :
Ceiling :
>= 8 km
>= 3000ft
5 to 8 km
1000 to 3000 ft
1500m to 5 km
500 to 1000 ft
800 to 1500m
200 to 500 ft
< 800m
< 200 ft
Symbols :   Thunderstorms  Fog  Heavy snow  Heavy precipitations  Wind > 20 kt






- Airport Elevation : 1270 ft
- IATA code : YMT


CYMT - Chapais

CURRENT METAR :
  • 301900Z AUTO 15017G24KT 9SM FEW230 21/06 A2997 RMK SLP159 DENSITY ALT 2200FT

EXPIRED METARs :
  • 301800Z AUTO 17013G22KT 9SM SCT066 SCT170 21/06 A3001 RMK SLP172 DENSITY ALT 2100FT
  • 301700Z AUTO 15010G17KT 130V200 9SM SCT066 20/06 A3006 RMK SLP188 DENSITY ALT 2000FT

TAF TAF CYMT
Valid from the 30 at 18:00 until the 01 at 00:00 UTC


301742Z 3018/3024 22012KT P6SM SKC
BECMG 3018/3019 18010G20KT BKN100
FM302200 18012G22KT P6SM -SHRA BKN060
TEMPO 3022/3024 4SM -SHRA BR BKN015 OVC040 RMK FCST BASED ON AUTO OBS. NXT FCST BY 011200Z
CZUL FIR / North America



MET'MAP, your aeronautical weather chart ! - Copyright ORBIFLY December 2007 - Disclaimer

ORBIFLY MET'MAP TEAM :

Programming & Development : Alexandra Zaïnal
Original concept : Baudouin d'Aumeries
Technical & hardware support : Manuel Goepfert
Assistance : Marc-Olivier Méhu




SOURCES & CREDITS :

   NOAA